Time;durP1;ratioP1;P1;durP2;ratioP2;P2;SDS_P1;SDS_P2;PMS_P1;PMS_P2;Temp;Humidity;BMP_temperature;BMP_pressure;BME280_temperature;BME280_humidity;BME280_pressure;Samples;Min_cycle;Max_cycle;Signal;HPM_P1;HPM_P2
2022/11/06 00:01:08;;;;;;;52.22;22.90;;;;;;;;;;13048813;22;20023;-74
2022/11/06 00:11:29;;;;;;;56.60;24.98;;;;;;;;;;13065079;22;20342;-84
2022/11/06 00:16:29;;;;;;;44.40;21.77;;;;;;;;;;13016276;22;19988;-73
2022/11/06 00:21:31;;;;;;;49.00;24.20;;;;;;;;;;13016331;22;20048;-74
2022/11/06 00:26:32;;;;;;;48.47;23.98;;;;;;;;;;13065785;22;20476;-75
2022/11/06 00:31:34;;;;;;;46.05;25.05;;;;;;;;;;13064361;22;20019;-75
2022/11/06 00:36:35;;;;;;;49.35;24.02;;;;;;;;;;13015690;22;20073;-76
2022/11/06 00:41:37;;;;;;;53.00;25.05;;;;;;;;;;13015611;22;20011;-75
2022/11/06 00:46:37;;;;;;;50.85;24.90;;;;;;;;;;13015709;22;19991;-74
2022/11/06 00:51:41;;;;;;;50.65;24.80;;;;;;;;;;13063788;22;20347;-76
2022/11/06 00:56:42;;;;;;;56.17;25.52;;;;;;;;;;13062658;22;19988;-79
2022/11/06 01:01:43;;;;;;;42.47;22.42;;;;;;;;;;13016401;22;20086;-74
2022/11/06 01:06:45;;;;;;;39.85;20.05;;;;;;;;;;13063701;22;19988;-74
2022/11/06 01:11:46;;;;;;;35.00;19.38;;;;;;;;;;13015664;22;20034;-74
2022/11/06 01:16:47;;;;;;;35.33;17.48;;;;;;;;;;13014245;22;19991;-74
2022/11/06 01:21:48;;;;;;;25.95;12.95;;;;;;;;;;13014475;22;19991;-75
2022/11/06 01:26:49;;;;;;;30.23;14.57;;;;;;;;;;12988910;22;19996;-75
2022/11/06 01:31:49;;;;;;;34.38;15.05;;;;;;;;;;13014979;22;20457;-77
2022/11/06 01:36:50;;;;;;;27.77;13.70;;;;;;;;;;13063810;22;19983;-76
2022/11/06 01:41:51;;;;;;;30.17;14.75;;;;;;;;;;13013239;22;20014;-79
2022/11/06 01:46:51;;;;;;;28.17;13.20;;;;;;;;;;13012443;22;20094;-78
2022/11/06 01:51:53;;;;;;;33.55;15.40;;;;;;;;;;13062782;22;20014;-75
2022/11/06 01:56:55;;;;;;;28.95;13.73;;;;;;;;;;13013435;22;19999;-76
2022/11/06 02:01:57;;;;;;;36.33;14.55;;;;;;;;;;13013288;22;20099;-76
2022/11/06 02:06:59;;;;;;;29.48;12.90;;;;;;;;;;12988299;22;20521;-76
2022/11/06 02:12:19;;;;;;;19.80;10.77;;;;;;;;;;13014353;22;20011;-75
2022/11/06 02:17:22;;;;;;;27.92;10.57;;;;;;;;;;13031246;22;20500;-74
2022/11/06 02:22:41;;;;;;;21.52;10.75;;;;;;;;;;13025601;22;19991;-73
2022/11/06 02:27:46;;;;;;;22.08;10.25;;;;;;;;;;13064131;22;20468;-76
2022/11/06 02:32:49;;;;;;;22.70;8.85;;;;;;;;;;13062125;22;19998;-73
2022/11/06 02:37:52;;;;;;;17.73;9.07;;;;;;;;;;13014588;22;20096;-79
2022/11/06 02:42:54;;;;;;;19.83;9.95;;;;;;;;;;12988145;22;20048;-78
2022/11/06 02:47:55;;;;;;;17.40;10.18;;;;;;;;;;13061454;22;20449;-78
2022/11/06 02:53:01;;;;;;;20.52;9.57;;;;;;;;;;13061907;22;20082;-74
2022/11/06 02:58:07;;;;;;;23.05;8.70;;;;;;;;;;13053161;22;20351;-78
2022/11/06 03:03:12;;;;;;;19.50;8.48;;;;;;;;;;13062705;22;20077;-78
2022/11/06 03:08:16;;;;;;;28.00;9.48;;;;;;;;;;13012361;22;20451;-75
2022/11/06 03:13:19;;;;;;;19.13;8.48;;;;;;;;;;13012664;22;20400;-76
2022/11/06 03:18:19;;;;;;;20.17;8.00;;;;;;;;;;13012217;22;20064;-81
2022/11/06 03:23:40;;;;;;;21.10;7.97;;;;;;;;;;13012168;22;20019;-75
2022/11/06 03:28:45;;;;;;;16.45;9.13;;;;;;;;;;13038700;22;20362;-74
2022/11/06 03:33:56;;;;;;;16.02;8.23;;;;;;;;;;13015715;22;19997;-77
2022/11/06 03:39:01;;;;;;;21.10;8.88;;;;;;;;;;13016389;22;20001;-75
2022/11/06 03:44:03;;;;;;;14.88;8.60;;;;;;;;;;13066284;22;19996;-75
2022/11/06 03:49:06;;;;;;;20.88;8.35;;;;;;;;;;13016809;22;20092;-74
2022/11/06 03:54:12;;;;;;;17.52;8.90;;;;;;;;;;13054630;22;20066;-75
2022/11/06 03:59:14;;;;;;;19.65;8.65;;;;;;;;;;13016480;22;20130;-81
2022/11/06 04:04:17;;;;;;;13.68;8.35;;;;;;;;;;13066894;22;20041;-79
2022/11/06 04:14:41;;;;;;;19.77;9.73;;;;;;;;;;13065413;22;20393;-76
2022/11/06 04:19:44;;;;;;;22.73;9.45;;;;;;;;;;13065438;22;19987;-75
2022/11/06 04:30:24;;;;;;;19.88;9.60;;;;;;;;;;13064791;22;20447;-74
2022/11/06 04:35:36;;;;;;;20.25;9.85;;;;;;;;;;13016068;22;19991;-79
2022/11/06 04:40:36;;;;;;;18.55;9.55;;;;;;;;;;13016623;22;20071;-72
2022/11/06 04:45:40;;;;;;;22.02;10.30;;;;;;;;;;13084833;22;19995;-73
2022/11/06 04:50:52;;;;;;;21.40;10.68;;;;;;;;;;13041625;22;20447;-72
2022/11/06 04:55:54;;;;;;;21.15;10.77;;;;;;;;;;13086718;22;20488;-73
2022/11/06 05:00:54;;;;;;;24.67;11.98;;;;;;;;;;13026380;22;20019;-74
2022/11/06 05:05:54;;;;;;;20.58;11.70;;;;;;;;;;13065735;22;19991;-73
2022/11/06 05:10:54;;;;;;;24.88;13.27;;;;;;;;;;13015541;22;20050;-81
2022/11/06 05:15:56;;;;;;;25.73;11.45;;;;;;;;;;13014186;22;19987;-76
2022/11/06 05:26:38;;;;;;;21.50;11.90;;;;;;;;;;12890276;22;19999;-78
2022/11/06 05:31:38;;;;;;;26.90;12.67;;;;;;;;;;13014048;22;20022;-76
2022/11/06 05:36:39;;;;;;;24.60;12.35;;;;;;;;;;13014392;22;19992;-76
2022/11/06 05:41:40;;;;;;;24.88;12.48;;;;;;;;;;13014755;22;19996;-74
2022/11/06 05:46:44;;;;;;;18.38;11.57;;;;;;;;;;13062533;22;20001;-83
2022/11/06 05:51:44;;;;;;;25.05;13.13;;;;;;;;;;13018119;22;19992;-77
2022/11/06 05:56:44;;;;;;;22.40;12.33;;;;;;;;;;13013361;22;20435;-75
2022/11/06 06:01:44;;;;;;;26.92;13.02;;;;;;;;;;13013687;22;20025;-75
2022/11/06 06:06:46;;;;;;;21.52;11.15;;;;;;;;;;13013766;22;19991;-75
2022/11/06 06:11:51;;;;;;;26.55;12.50;;;;;;;;;;13012906;22;20003;-76
2022/11/06 06:17:06;;;;;;;22.20;13.68;;;;;;;;;;13060660;22;19987;-82
2022/11/06 06:22:07;;;;;;;30.52;14.32;;;;;;;;;;13011804;22;20339;-74
2022/11/06 06:27:07;;;;;;;21.10;12.80;;;;;;;;;;13047620;22;20010;-75
2022/11/06 06:32:07;;;;;;;20.60;10.93;;;;;;;;;;13012260;22;20023;-74
2022/11/06 06:37:08;;;;;;;23.73;11.67;;;;;;;;;;13013085;22;20462;-76
2022/11/06 06:42:08;;;;;;;21.52;12.10;;;;;;;;;;13062323;22;20002;-74
2022/11/06 06:47:08;;;;;;;25.42;12.38;;;;;;;;;;13012321;22;20007;-74
2022/11/06 06:52:08;;;;;;;23.33;12.98;;;;;;;;;;13058428;22;19992;-75
2022/11/06 06:57:09;;;;;;;22.17;12.32;;;;;;;;;;13011596;22;20422;-79
2022/11/06 07:02:09;;;;;;;25.13;13.63;;;;;;;;;;13010022;22;20030;-75
2022/11/06 07:07:09;;;;;;;21.95;13.68;;;;;;;;;;13015853;22;20010;-75
2022/11/06 07:12:10;;;;;;;28.20;13.40;;;;;;;;;;13013425;22;20011;-74
2022/11/06 07:17:11;;;;;;;25.83;13.48;;;;;;;;;;13016061;22;20049;-77
2022/11/06 07:22:11;;;;;;;28.38;13.75;;;;;;;;;;13018094;22;19995;-77
2022/11/06 07:27:11;;;;;;;23.63;14.25;;;;;;;;;;13024319;22;19995;-75
2022/11/06 07:32:11;;;;;;;34.42;14.20;;;;;;;;;;13014410;22;19994;-77
2022/11/06 07:37:12;;;;;;;25.38;13.82;;;;;;;;;;13015284;22;19999;-75
2022/11/06 07:42:12;;;;;;;30.33;13.95;;;;;;;;;;13014812;22;19995;-78
2022/11/06 07:47:12;;;;;;;25.45;13.93;;;;;;;;;;13014497;22;20450;-74
2022/11/06 07:52:12;;;;;;;30.65;15.02;;;;;;;;;;13015968;22;20048;-78
2022/11/06 07:57:13;;;;;;;24.35;14.63;;;;;;;;;;13013386;22;20470;-81
2022/11/06 08:02:13;;;;;;;20.80;11.57;;;;;;;;;;13014502;22;20419;-79
2022/11/06 08:07:13;;;;;;;27.60;15.07;;;;;;;;;;13063757;22;19992;-76
2022/11/06 08:12:13;;;;;;;26.60;16.23;;;;;;;;;;13013962;22;19995;-76
2022/11/06 08:17:14;;;;;;;26.48;16.63;;;;;;;;;;13013826;22;19995;-78
2022/11/06 08:22:14;;;;;;;28.65;16.63;;;;;;;;;;13012815;22;19995;-78
2022/11/06 08:27:14;;;;;;;36.17;17.15;;;;;;;;;;13061807;22;20081;-74
2022/11/06 08:32:14;;;;;;;38.08;17.60;;;;;;;;;;13013549;22;19988;-73
2022/11/06 08:37:15;;;;;;;33.85;18.58;;;;;;;;;;13014832;22;20029;-74
2022/11/06 08:42:15;;;;;;;37.17;19.00;;;;;;;;;;13013811;22;20023;-76
2022/11/06 08:47:15;;;;;;;37.03;17.08;;;;;;;;;;13013238;22;20085;-78
2022/11/06 08:52:16;;;;;;;35.35;18.52;;;;;;;;;;13014041;22;19987;-77
2022/11/06 08:57:16;;;;;;;32.17;18.57;;;;;;;;;;13010755;22;20026;-76
2022/11/06 09:02:17;;;;;;;33.13;18.90;;;;;;;;;;13009189;22;20616;-78
2022/11/06 09:07:17;;;;;;;36.00;20.60;;;;;;;;;;13007844;22;19999;-76
2022/11/06 09:12:17;;;;;;;31.23;17.63;;;;;;;;;;13058538;22;20218;-73
2022/11/06 09:17:22;;;;;;;39.55;19.17;;;;;;;;;;13012921;22;20072;-74
2022/11/06 09:22:22;;;;;;;26.33;16.50;;;;;;;;;;13060829;22;19994;-75
2022/11/06 09:27:22;;;;;;;30.05;14.98;;;;;;;;;;13012678;22;20006;-80
2022/11/06 09:32:23;;;;;;;32.63;15.00;;;;;;;;;;13010795;22;19991;-74
2022/11/06 09:37:23;;;;;;;23.38;14.65;;;;;;;;;;13011458;22;20026;-75
2022/11/06 09:42:34;;;;;;;25.10;14.38;;;;;;;;;;13011503;22;20006;-78
2022/11/06 09:47:36;;;;;;;30.95;14.98;;;;;;;;;;13011692;22;19998;-73
2022/11/06 09:52:41;;;;;;;21.40;12.73;;;;;;;;;;13057327;22;20017;-79
2022/11/06 09:57:44;;;;;;;19.98;12.13;;;;;;;;;;13012430;22;20019;-76
2022/11/06 10:02:50;;;;;;;17.77;11.60;;;;;;;;;;13012490;22;20656;-79
2022/11/06 10:07:52;;;;;;;17.45;11.18;;;;;;;;;;13014703;22;20002;-79
2022/11/06 10:13:01;;;;;;;19.05;10.43;;;;;;;;;;13016723;22;20090;-78
2022/11/06 10:18:08;;;;;;;19.10;11.90;;;;;;;;;;13035109;22;19991;-75
2022/11/06 10:23:19;;;;;;;17.92;10.60;;;;;;;;;;13063245;22;19995;-75
2022/11/06 10:28:29;;;;;;;23.40;10.82;;;;;;;;;;13013076;22;20000;-75
2022/11/06 10:33:35;;;;;;;16.15;9.25;;;;;;;;;;13013387;22;19992;-76
2022/11/06 10:38:37;;;;;;;14.38;8.35;;;;;;;;;;13060367;22;20026;-75
2022/11/06 10:43:42;;;;;;;12.02;7.10;;;;;;;;;;13012581;22;19991;-75
2022/11/06 10:48:46;;;;;;;12.25;9.40;;;;;;;;;;13061167;22;20045;-78
2022/11/06 10:54:06;;;;;;;8.18;6.22;;;;;;;;;;13011423;22;19987;-76
2022/11/06 10:59:06;;;;;;;10.95;7.57;;;;;;;;;;13010426;22;20104;-75
2022/11/06 11:04:08;;;;;;;12.00;5.97;;;;;;;;;;13011471;22;20038;-74
2022/11/06 11:09:34;;;;;;;10.23;5.97;;;;;;;;;;13062539;22;20018;-78
2022/11/06 11:14:35;;;;;;;10.63;6.47;;;;;;;;;;13036273;22;19994;-75
2022/11/06 11:19:36;;;;;;;8.30;6.68;;;;;;;;;;13010177;22;20327;-76
2022/11/06 11:24:56;;;;;;;18.17;6.53;;;;;;;;;;13033168;22;20430;-73
2022/11/06 11:29:57;;;;;;;10.13;7.43;;;;;;;;;;13011440;22;20025;-74
2022/11/06 11:34:57;;;;;;;12.10;6.95;;;;;;;;;;13011274;22;20021;-76
2022/11/06 11:40:36;;;;;;;11.30;7.75;;;;;;;;;;13009996;22;20002;-80
2022/11/06 11:45:37;;;;;;;18.52;13.05;;;;;;;;;;12818616;23;20076;-79
2022/11/06 11:50:38;;;;;;;24.02;12.88;;;;;;;;;;12965803;22;20145;-77
2022/11/06 11:55:46;;;;;;;23.13;13.10;;;;;;;;;;13016313;22;20003;-74
2022/11/06 12:00:52;;;;;;;20.27;10.77;;;;;;;;;;13043470;22;20012;-77
2022/11/06 12:05:52;;;;;;;17.63;10.75;;;;;;;;;;13022974;22;20034;-74
2022/11/06 12:10:59;;;;;;;18.77;12.15;;;;;;;;;;13016049;22;19998;-76
2022/11/06 12:16:01;;;;;;;16.63;10.73;;;;;;;;;;12991030;22;20086;-77
2022/11/06 12:21:11;;;;;;;15.32;9.20;;;;;;;;;;13016652;22;19995;-76
2022/11/06 12:26:29;;;;;;;12.65;8.50;;;;;;;;;;13064762;22;19998;-74
2022/11/06 12:31:48;;;;;;;12.63;8.13;;;;;;;;;;13014960;22;19996;-73
2022/11/06 12:37:12;;;;;;;13.18;8.73;;;;;;;;;;13014493;22;20022;-78
2022/11/06 12:42:13;;;;;;;20.27;9.07;;;;;;;;;;13002709;22;19999;-75
2022/11/06 12:47:19;;;;;;;13.70;7.13;;;;;;;;;;12990290;22;19995;-78
2022/11/06 12:52:32;;;;;;;14.90;7.88;;;;;;;;;;13014206;22;19991;-76
2022/11/06 12:57:53;;;;;;;15.50;8.07;;;;;;;;;;13015064;22;20042;-72
2022/11/06 13:03:06;;;;;;;13.63;7.97;;;;;;;;;;12989566;22;20350;-76
2022/11/06 13:08:12;;;;;;;12.68;7.15;;;;;;;;;;13016206;22;20002;-74
2022/11/06 13:13:32;;;;;;;13.75;7.45;;;;;;;;;;13022694;22;19987;-75
2022/11/06 13:18:41;;;;;;;10.65;6.85;;;;;;;;;;13024320;22;20002;-74
2022/11/06 13:23:46;;;;;;;13.85;7.63;;;;;;;;;;13042453;22;20431;-79
2022/11/06 13:28:48;;;;;;;11.88;7.97;;;;;;;;;;13062797;22;20002;-75
2022/11/06 13:33:57;;;;;;;12.98;7.95;;;;;;;;;;13011746;22;20078;-83
2022/11/06 13:39:01;;;;;;;13.68;6.70;;;;;;;;;;12991611;22;20022;-80
2022/11/06 13:44:03;;;;;;;9.90;6.30;;;;;;;;;;13014815;22;20002;-79
2022/11/06 13:49:09;;;;;;;9.80;7.40;;;;;;;;;;13063816;22;20002;-78
2022/11/06 13:54:09;;;;;;;14.25;6.88;;;;;;;;;;13014748;22;19988;-80
2022/11/06 13:59:28;;;;;;;17.27;7.35;;;;;;;;;;13015213;22;20449;-77
2022/11/06 14:04:41;;;;;;;11.35;7.20;;;;;;;;;;13014553;22;20011;-74
2022/11/06 14:09:43;;;;;;;11.43;6.88;;;;;;;;;;13061873;22;20370;-75
2022/11/06 14:14:43;;;;;;;12.82;5.90;;;;;;;;;;13014198;22;20014;-81
2022/11/06 14:19:43;;;;;;;12.75;5.80;;;;;;;;;;13016370;22;20010;-81
2022/11/06 14:24:43;;;;;;;9.68;5.40;;;;;;;;;;13015776;22;19991;-76
2022/11/06 14:30:00;;;;;;;9.85;6.20;;;;;;;;;;13011512;22;20002;-75
2022/11/06 14:35:19;;;;;;;10.52;6.13;;;;;;;;;;13058028;22;19991;-77
2022/11/06 14:40:29;;;;;;;9.10;5.85;;;;;;;;;;13008201;22;19995;-80
2022/11/06 14:45:29;;;;;;;14.07;6.00;;;;;;;;;;13058476;22;20006;-76
2022/11/06 14:50:36;;;;;;;9.43;5.65;;;;;;;;;;13013523;22;20442;-78
2022/11/06 14:55:39;;;;;;;13.60;5.95;;;;;;;;;;13012724;22;20057;-75
2022/11/06 15:00:43;;;;;;;7.40;5.38;;;;;;;;;;13041487;22;20022;-75
2022/11/06 15:05:43;;;;;;;10.10;6.28;;;;;;;;;;13060869;22;20035;-74
2022/11/06 15:10:43;;;;;;;11.10;6.20;;;;;;;;;;12985052;22;19995;-74
2022/11/06 15:15:44;;;;;;;13.65;5.60;;;;;;;;;;13008708;22;19998;-77
2022/11/06 15:20:49;;;;;;;9.05;6.15;;;;;;;;;;12985072;22;20457;-79
2022/11/06 15:26:10;;;;;;;11.57;6.43;;;;;;;;;;13012182;22;20253;-75
2022/11/06 15:31:15;;;;;;;10.82;6.22;;;;;;;;;;12967300;22;20106;-74
2022/11/06 15:36:16;;;;;;;10.15;6.32;;;;;;;;;;13010346;22;19995;-75
2022/11/06 15:41:18;;;;;;;14.60;6.15;;;;;;;;;;13010610;22;20427;-75
2022/11/06 15:46:26;;;;;;;13.85;7.13;;;;;;;;;;13010512;22;20396;-77
2022/11/06 15:51:27;;;;;;;12.03;7.00;;;;;;;;;;12987715;22;19999;-74
2022/11/06 15:56:29;;;;;;;12.13;7.05;;;;;;;;;;13025360;22;20222;-85
2022/11/06 16:01:33;;;;;;;9.65;6.32;;;;;;;;;;12982348;22;20076;-74
2022/11/06 16:06:33;;;;;;;13.85;7.35;;;;;;;;;;12995497;22;20061;-70
2022/11/06 16:11:34;;;;;;;11.50;7.53;;;;;;;;;;13023432;22;20424;-75
2022/11/06 16:16:36;;;;;;;17.92;6.72;;;;;;;;;;13005732;22;20022;-74
2022/11/06 16:21:36;;;;;;;10.82;6.18;;;;;;;;;;12980618;22;19996;-74
2022/11/06 16:26:44;;;;;;;12.43;7.17;;;;;;;;;;12993767;22;19998;-78
2022/11/06 16:31:44;;;;;;;17.88;7.80;;;;;;;;;;12972274;22;20061;-75
2022/11/06 16:36:49;;;;;;;15.25;9.02;;;;;;;;;;12994900;22;20037;-75
2022/11/06 16:41:56;;;;;;;17.60;10.52;;;;;;;;;;12999024;22;20351;-79
2022/11/06 16:47:08;;;;;;;18.75;10.38;;;;;;;;;;12977057;22;19988;-74
2022/11/06 16:52:21;;;;;;;15.48;10.38;;;;;;;;;;12974717;22;20007;-73
2022/11/06 16:57:26;;;;;;;20.08;10.15;;;;;;;;;;12993802;22;19996;-76
2022/11/06 17:02:28;;;;;;;18.00;9.98;;;;;;;;;;13057859;22;20474;-74
2022/11/06 17:07:28;;;;;;;21.13;10.75;;;;;;;;;;13007685;22;19999;-76
2022/11/06 17:12:28;;;;;;;17.57;9.93;;;;;;;;;;13008676;22;20446;-76
2022/11/06 17:17:30;;;;;;;23.90;11.82;;;;;;;;;;13013703;22;20328;-78
2022/11/06 17:22:30;;;;;;;19.17;11.18;;;;;;;;;;13013238;22;20343;-74
2022/11/06 17:27:31;;;;;;;18.42;10.43;;;;;;;;;;13013789;22;19999;-79
2022/11/06 17:32:31;;;;;;;26.57;11.17;;;;;;;;;;13013363;22;19991;-80
2022/11/06 17:37:33;;;;;;;24.20;12.45;;;;;;;;;;13028279;22;20484;-77
2022/11/06 17:42:33;;;;;;;25.40;13.68;;;;;;;;;;13016875;22;19988;-80
2022/11/06 17:47:34;;;;;;;29.27;14.50;;;;;;;;;;13041875;22;20030;-79
2022/11/06 17:52:36;;;;;;;39.75;17.33;;;;;;;;;;13014726;22;20084;-79
2022/11/06 17:57:36;;;;;;;28.45;16.65;;;;;;;;;;13013647;22;20474;-79
2022/11/06 18:02:37;;;;;;;34.43;16.60;;;;;;;;;;13013383;22;20003;-75
2022/11/06 18:07:38;;;;;;;30.10;15.88;;;;;;;;;;13012990;22;20384;-81
2022/11/06 18:12:39;;;;;;;29.08;15.23;;;;;;;;;;13012614;22;19991;-76
2022/11/06 18:17:39;;;;;;;30.40;16.58;;;;;;;;;;13062316;22;20338;-76
2022/11/06 18:22:39;;;;;;;35.40;18.33;;;;;;;;;;13011638;22;20569;-75
2022/11/06 18:27:39;;;;;;;30.98;17.90;;;;;;;;;;13011474;22;20003;-78
2022/11/06 18:32:40;;;;;;;27.92;14.75;;;;;;;;;;13012795;22;20019;-77
2022/11/06 18:37:40;;;;;;;30.23;15.23;;;;;;;;;;13061158;22;19995;-76
2022/11/06 18:42:41;;;;;;;36.88;14.70;;;;;;;;;;13048774;22;20347;-80
2022/11/06 18:47:42;;;;;;;37.65;18.48;;;;;;;;;;13013810;22;20061;-71
2022/11/06 18:52:42;;;;;;;33.35;18.10;;;;;;;;;;13022103;22;20343;-76
2022/11/06 18:57:42;;;;;;;35.40;18.92;;;;;;;;;;13015444;22;20011;-75
2022/11/06 19:02:43;;;;;;;30.87;18.13;;;;;;;;;;13022973;22;20010;-75
2022/11/06 19:07:45;;;;;;;34.05;17.50;;;;;;;;;;13059516;22;19999;-76
2022/11/06 19:12:45;;;;;;;48.35;26.02;;;;;;;;;;13009355;22;20021;-79
2022/11/06 19:17:45;;;;;;;25.23;14.73;;;;;;;;;;13011388;22;19999;-79
2022/11/06 19:22:50;;;;;;;30.02;15.40;;;;;;;;;;12985300;22;20033;-82
2022/11/06 19:27:52;;;;;;;33.63;15.60;;;;;;;;;;13009038;22;20011;-80
2022/11/06 19:32:53;;;;;;;30.25;16.48;;;;;;;;;;13052084;22;19991;-81
2022/11/06 19:37:57;;;;;;;29.43;14.90;;;;;;;;;;13059545;22;20022;-84
2022/11/06 19:42:58;;;;;;;25.00;14.52;;;;;;;;;;13010005;22;20052;-77
2022/11/06 19:47:58;;;;;;;23.95;14.52;;;;;;;;;;13050298;22;20003;-76
2022/11/06 19:52:59;;;;;;;28.27;15.07;;;;;;;;;;13057296;22;19995;-78
2022/11/06 19:57:59;;;;;;;30.20;19.45;;;;;;;;;;13009962;22;20015;-75
2022/11/06 20:02:59;;;;;;;34.53;19.58;;;;;;;;;;13057398;22;20011;-78
2022/11/06 20:08:00;;;;;;;37.47;17.73;;;;;;;;;;13008090;22;20015;-76
2022/11/06 20:13:02;;;;;;;35.38;21.35;;;;;;;;;;13011015;22;19995;-78
2022/11/06 20:18:02;;;;;;;40.13;21.20;;;;;;;;;;13059514;22;20439;-76
2022/11/06 20:23:03;;;;;;;40.13;22.97;;;;;;;;;;13014025;22;20098;-76
2022/11/06 20:28:03;;;;;;;39.28;22.55;;;;;;;;;;13014567;22;20027;-76
2022/11/06 20:33:03;;;;;;;44.17;24.23;;;;;;;;;;13010616;22;19987;-74
2022/11/06 20:38:04;;;;;;;43.10;23.40;;;;;;;;;;13010985;22;20473;-77
2022/11/06 20:43:04;;;;;;;37.25;20.17;;;;;;;;;;13015291;22;19995;-80
2022/11/06 20:48:05;;;;;;;37.13;21.40;;;;;;;;;;13062502;22;20024;-78
2022/11/06 20:53:05;;;;;;;35.95;19.48;;;;;;;;;;12986969;22;20056;-81
2022/11/06 20:58:06;;;;;;;35.63;20.55;;;;;;;;;;13013601;22;20088;-77
2022/11/06 21:03:06;;;;;;;39.03;21.58;;;;;;;;;;13013775;22;20002;-75
2022/11/06 21:08:06;;;;;;;39.58;22.38;;;;;;;;;;13012740;22;19999;-76
2022/11/06 21:13:06;;;;;;;39.63;22.20;;;;;;;;;;13014948;22;20076;-74
2022/11/06 21:18:07;;;;;;;39.00;20.55;;;;;;;;;;13015205;22;19995;-74
2022/11/06 21:23:07;;;;;;;31.30;19.02;;;;;;;;;;13021027;22;19991;-77
2022/11/06 21:28:08;;;;;;;35.40;20.90;;;;;;;;;;13048460;22;19999;-72
2022/11/06 21:33:09;;;;;;;43.97;21.75;;;;;;;;;;13022425;22;19994;-72
2022/11/06 21:38:10;;;;;;;40.33;22.60;;;;;;;;;;13036780;22;19991;-76
2022/11/06 21:43:10;;;;;;;39.83;20.85;;;;;;;;;;12993135;22;20036;-73
2022/11/06 21:48:12;;;;;;;34.70;20.08;;;;;;;;;;13024331;22;20082;-78
2022/11/06 21:58:32;;;;;;;39.45;20.90;;;;;;;;;;13052254;22;20015;-76
2022/11/06 22:03:32;;;;;;;35.50;19.58;;;;;;;;;;13013606;22;20039;-73
2022/11/06 22:08:37;;;;;;;38.43;20.13;;;;;;;;;;13062706;22;20014;-80
2022/11/06 22:13:38;;;;;;;34.65;20.48;;;;;;;;;;13013758;22;19988;-79
2022/11/06 22:18:39;;;;;;;32.63;19.33;;;;;;;;;;13062252;22;20006;-78
2022/11/06 22:23:40;;;;;;;37.97;21.83;;;;;;;;;;12988161;22;20445;-73
2022/11/06 22:28:40;;;;;;;34.22;20.70;;;;;;;;;;13062287;22;20003;-74
2022/11/06 22:33:40;;;;;;;31.55;18.60;;;;;;;;;;13013652;22;20368;-73
2022/11/06 22:38:41;;;;;;;41.45;20.33;;;;;;;;;;13062410;22;19991;-74
2022/11/06 22:43:43;;;;;;;33.28;18.92;;;;;;;;;;13061964;22;19998;-80
2022/11/06 22:48:44;;;;;;;32.30;17.48;;;;;;;;;;13012764;22;20004;-75
2022/11/06 22:53:45;;;;;;;31.23;19.67;;;;;;;;;;13013140;22;20097;-75
2022/11/06 22:58:46;;;;;;;39.63;21.38;;;;;;;;;;13052373;22;20011;-78
2022/11/06 23:03:47;;;;;;;40.30;23.15;;;;;;;;;;13012793;22;20435;-77
2022/11/06 23:08:47;;;;;;;44.13;23.77;;;;;;;;;;13013126;22;20052;-82
2022/11/06 23:13:48;;;;;;;39.57;22.77;;;;;;;;;;13012801;22;20087;-75
2022/11/06 23:18:48;;;;;;;44.83;24.73;;;;;;;;;;13061186;22;20048;-73
2022/11/06 23:23:49;;;;;;;49.83;25.42;;;;;;;;;;13049045;22;20225;-78
2022/11/06 23:28:49;;;;;;;50.35;25.48;;;;;;;;;;13012633;22;20003;-75
2022/11/06 23:33:49;;;;;;;40.17;23.88;;;;;;;;;;13063203;22;19991;-78
2022/11/06 23:38:51;;;;;;;42.50;22.98;;;;;;;;;;13013573;22;19995;-81
2022/11/06 23:43:52;;;;;;;44.53;23.50;;;;;;;;;;13013895;22;20044;-74
2022/11/06 23:48:52;;;;;;;41.10;23.15;;;;;;;;;;13016695;22;20027;-77
2022/11/06 23:53:53;;;;;;;53.85;24.98;;;;;;;;;;13016828;22;20026;-75
2022/11/06 23:58:54;;;;;;;45.08;22.40;;;;;;;;;;12993483;22;20015;-81
